Bulpitt, Illinois
Current Conditions -  °F | °C
As of 11:35 PM on Sunday 21 Dec 2014 (Local Time) from KTAZ Reporting Station
Overcast Overcast  
Wind Chill: 28°   Ceiling: 6000
Heat Index: 36°   Visibility: 10mi
Dew Point: 32°   Wind: 12mph
Humidity: 87%   Direction: 140°SE
Pressure: 29.97"   Gusts: NA
Location:  39.59°N, 89.42°W
Report Text: KTAZ 220535Z AUTO 14010KT 10SM SCT043 OVC060 02/00 A2997 RMK AO2
Loading
Personal Weather Stations






























Interactive Weather Map New forecast layout! Learn more

10-Day Weather Forecast

Advertisements
Track Severe Weather on mobile